createdAt,value
2023-10-15T00:01:22.853Z,95.13
2023-10-15T00:03:51.381Z,93.61
2023-10-15T00:06:32.082Z,93.60
2023-10-15T00:09:10.301Z,92.24
2023-10-15T00:11:38.760Z,92.17
2023-10-15T00:14:07.578Z,92.10
2023-10-15T00:16:39.455Z,92.16
2023-10-15T00:19:11.797Z,94.14
2023-10-15T00:21:40.701Z,94.96
2023-10-15T00:24:11.906Z,95.51
2023-10-15T00:26:40.574Z,95.52
2023-10-15T00:29:09.691Z,96.04
2023-10-15T00:31:38.988Z,96.19
2023-10-15T00:34:13.483Z,95.93
2023-10-15T00:36:42.194Z,96.18
2023-10-15T00:39:21.180Z,96.60
2023-10-15T00:41:49.973Z,96.62
2023-10-15T00:44:18.437Z,96.37
2023-10-15T00:46:56.060Z,95.50
2023-10-15T00:49:27.504Z,95.67
2023-10-15T00:51:57.134Z,95.49
2023-10-15T00:54:27.056Z,95.28
2023-10-15T00:56:56.153Z,95.32
2023-10-15T00:59:35.727Z,94.65
2023-10-15T01:02:06.766Z,95.28
2023-10-15T01:04:37.294Z,94.35
2023-10-15T01:07:16.218Z,95.11
2023-10-15T01:09:45.847Z,95.50
2023-10-15T01:12:32.189Z,94.63
2023-10-15T01:15:01.187Z,96.02
2023-10-15T01:17:37.928Z,96.54
2023-10-15T01:20:10.717Z,96.57
2023-10-15T01:22:41.054Z,96.05
2023-10-15T01:25:24.837Z,95.21
2023-10-15T01:27:56.612Z,95.11
2023-10-15T01:30:25.847Z,95.74
2023-10-15T01:32:55.747Z,94.95
2023-10-15T01:35:26.078Z,94.32
2023-10-15T01:38:07.540Z,93.42
2023-10-15T01:40:41.617Z,93.57
2023-10-15T01:43:13.925Z,92.88
2023-10-15T01:45:48.603Z,93.75
2023-10-15T01:48:25.890Z,94.11
2023-10-15T01:50:56.824Z,93.62
2023-10-15T01:53:25.447Z,94.49
2023-10-15T01:56:02.008Z,93.92
2023-10-15T01:58:34.032Z,95.36
2023-10-15T02:01:11.174Z,95.33
2023-10-15T02:03:39.794Z,95.93
2023-10-15T02:06:09.569Z,95.43
2023-10-15T02:08:52.669Z,94.36
2023-10-15T02:11:23.683Z,94.33
2023-10-15T02:13:56.682Z,93.51
2023-10-15T02:16:31.284Z,94.64
2023-10-15T02:19:01.116Z,94.84
2023-10-15T02:21:32.996Z,94.70
2023-10-15T02:24:09.536Z,94.52
2023-10-15T02:26:39.938Z,95.15
2023-10-15T02:29:23.161Z,95.34
2023-10-15T02:31:51.604Z,94.74
2023-10-15T02:34:26.097Z,95.16
2023-10-15T02:36:54.839Z,95.13
2023-10-15T02:39:25.030Z,96.54
2023-10-15T02:41:55.103Z,95.69
2023-10-15T02:44:23.866Z,95.77
2023-10-15T02:46:59.506Z,96.66
2023-10-15T02:49:28.410Z,97.48
2023-10-15T02:51:57.539Z,97.61
2023-10-15T02:54:29.742Z,98.00
2023-10-15T02:57:01.391Z,98.03
2023-10-15T02:59:32.623Z,98.63
2023-10-15T03:02:08.127Z,98.54
2023-10-15T03:04:39.459Z,98.17
2023-10-15T03:07:21.053Z,98.47
2023-10-15T03:09:53.351Z,98.73
2023-10-15T03:12:23.088Z,99.09
2023-10-15T03:14:52.945Z,98.82
2023-10-15T03:17:26.868Z,98.68
2023-10-15T03:20:12.431Z,98.66
2023-10-15T03:22:41.016Z,98.88
2023-10-15T03:25:14.409Z,98.57
2023-10-15T03:27:47.878Z,98.79
2023-10-15T03:30:23.573Z,99.57
2023-10-15T03:32:53.987Z,100.00
2023-10-15T03:35:34.005Z,100.00
2023-10-15T03:38:06.308Z,100.00
2023-10-15T03:40:42.410Z,99.65
2023-10-15T03:43:17.717Z,100.00
2023-10-15T03:45:52.969Z,100.00
2023-10-15T03:48:23.737Z,100.00
2023-10-15T03:50:59.086Z,100.00
2023-10-15T03:53:30.151Z,100.00
2023-10-15T03:55:59.678Z,100.00
2023-10-15T03:58:29.946Z,100.00
2023-10-15T04:01:12.769Z,100.00
2023-10-15T04:03:51.463Z,100.00
2023-10-15T04:06:30.553Z,100.00
2023-10-15T04:09:10.480Z,100.00
2023-10-15T04:11:48.386Z,100.00
2023-10-15T04:14:27.255Z,100.00
2023-10-15T04:16:55.892Z,100.00
2023-10-15T04:19:27.253Z,100.00
2023-10-15T04:22:01.122Z,100.00
2023-10-15T04:24:37.802Z,100.00
2023-10-15T04:27:15.473Z,100.00
2023-10-15T04:29:50.582Z,100.00
2023-10-15T04:32:25.007Z,100.00
2023-10-15T04:34:53.753Z,100.00
2023-10-15T04:37:24.973Z,100.00
2023-10-15T04:40:05.832Z,100.00
2023-10-15T04:42:44.679Z,100.00
2023-10-15T04:45:24.451Z,100.00
2023-10-15T04:47:54.233Z,100.00
2023-10-15T04:50:22.831Z,100.00
2023-10-15T04:52:51.260Z,100.00
2023-10-15T04:55:20.203Z,100.00
2023-10-15T04:57:48.504Z,100.00
2023-10-15T05:00:26.772Z,100.00
2023-10-15T05:02:55.088Z,100.00
2023-10-15T05:05:24.248Z,100.00
2023-10-15T05:07:52.573Z,100.00
2023-10-15T05:10:22.008Z,100.00
2023-10-15T05:12:52.999Z,100.00
2023-10-15T05:15:22.643Z,100.00
2023-10-15T05:17:50.941Z,100.00
2023-10-15T05:20:22.002Z,100.00
2023-10-15T05:22:50.871Z,100.00
2023-10-15T05:25:19.562Z,100.00
2023-10-15T05:27:48.289Z,100.00
2023-10-15T05:30:17.089Z,100.00
2023-10-15T05:32:49.700Z,100.00
2023-10-15T05:35:19.030Z,100.00
2023-10-15T05:37:48.147Z,100.00
2023-10-15T05:40:17.266Z,100.00
2023-10-15T05:42:46.150Z,100.00
2023-10-15T05:45:16.059Z,100.00
2023-10-15T05:47:46.325Z,100.00
2023-10-15T05:50:17.426Z,100.00
2023-10-15T05:52:46.775Z,100.00
2023-10-15T05:55:15.497Z,100.00
2023-10-15T05:57:44.770Z,100.00
2023-10-15T06:00:20.362Z,100.00
2023-10-15T06:02:52.167Z,100.00
2023-10-15T06:05:20.817Z,100.00
2023-10-15T06:07:50.199Z,100.00
2023-10-15T06:10:18.517Z,100.00
2023-10-15T06:12:46.757Z,100.00
2023-10-15T06:15:19.357Z,100.00
2023-10-15T06:17:51.626Z,100.00
2023-10-15T06:20:21.751Z,100.00
2023-10-15T06:22:57.365Z,100.00
2023-10-15T06:25:26.307Z,100.00
2023-10-15T06:27:54.679Z,100.00
2023-10-15T06:30:24.745Z,100.00
2023-10-15T06:32:55.024Z,100.00
2023-10-15T06:35:26.567Z,100.00
2023-10-15T06:37:59.134Z,100.00
2023-10-15T06:40:29.812Z,100.00
2023-10-15T06:43:02.245Z,100.00
2023-10-15T06:45:33.044Z,100.00
2023-10-15T06:48:04.404Z,100.00
2023-10-15T06:50:34.546Z,100.00
2023-10-15T06:53:06.635Z,100.00
2023-10-15T06:55:36.291Z,100.00
2023-10-15T06:58:05.626Z,100.00
2023-10-15T07:00:35.791Z,100.00
2023-10-15T07:03:06.118Z,100.00
2023-10-15T07:05:35.516Z,100.00
2023-10-15T07:08:05.832Z,100.00
2023-10-15T07:10:34.796Z,100.00
2023-10-15T07:13:03.658Z,100.00
2023-10-15T07:15:31.863Z,100.00
2023-10-15T07:18:01.721Z,100.00
2023-10-15T07:20:31.655Z,100.00
2023-10-15T07:23:01.944Z,100.00
2023-10-15T07:25:30.682Z,100.00
2023-10-15T07:28:01.173Z,100.00
2023-10-15T07:30:32.097Z,100.00
2023-10-15T07:33:01.370Z,100.00
2023-10-15T07:35:32.923Z,100.00
2023-10-15T07:38:04.007Z,100.00
2023-10-15T07:40:35.015Z,100.00
2023-10-15T07:43:04.131Z,100.00
2023-10-15T07:45:34.598Z,100.00
2023-10-15T07:48:06.545Z,100.00
2023-10-15T07:50:37.432Z,99.93
2023-10-15T07:53:07.588Z,100.00
2023-10-15T07:55:35.989Z,99.80
2023-10-15T07:58:04.539Z,99.86
2023-10-15T08:00:34.973Z,99.38
2023-10-15T08:03:09.685Z,99.08
2023-10-15T08:05:41.515Z,98.79
2023-10-15T08:08:10.162Z,97.87
2023-10-15T08:10:39.328Z,99.78
2023-10-15T08:13:09.577Z,99.70
2023-10-15T08:15:40.708Z,99.45
2023-10-15T08:18:09.193Z,100.00
2023-10-15T08:20:39.088Z,100.00
2023-10-15T08:23:07.420Z,99.31
2023-10-15T08:25:35.884Z,98.66
2023-10-15T08:28:05.478Z,99.92
2023-10-15T08:30:36.207Z,99.39
2023-10-15T08:33:11.784Z,98.91
2023-10-15T08:35:42.444Z,99.37
2023-10-15T08:38:13.728Z,98.86
2023-10-15T08:40:45.854Z,98.01
2023-10-15T08:43:21.317Z,98.20
2023-10-15T08:45:52.531Z,97.73
2023-10-15T08:48:21.598Z,98.11
2023-10-15T08:50:51.503Z,99.11
2023-10-15T08:53:19.962Z,96.86
2023-10-15T08:55:48.591Z,94.93
2023-10-15T08:58:21.623Z,94.64
2023-10-15T09:00:50.973Z,95.45
2023-10-15T09:03:21.162Z,93.65
2023-10-15T09:05:53.306Z,97.16
2023-10-15T09:08:24.400Z,97.48
2023-10-15T09:10:54.681Z,96.05
2023-10-15T09:13:23.150Z,95.26
2023-10-15T09:15:53.536Z,95.61
2023-10-15T09:18:22.091Z,95.56
2023-10-15T09:20:53.167Z,95.17
2023-10-15T09:23:24.171Z,95.70
2023-10-15T09:25:57.913Z,96.87
2023-10-15T09:28:29.311Z,97.02
2023-10-15T09:31:10.532Z,97.21
2023-10-15T09:33:40.465Z,97.28
2023-10-15T09:36:10.624Z,94.71
2023-10-15T09:38:39.332Z,93.77
2023-10-15T09:41:07.879Z,93.76
2023-10-15T09:43:37.286Z,93.69
2023-10-15T09:46:08.524Z,92.51
2023-10-15T09:48:38.864Z,92.18
2023-10-15T09:51:11.299Z,94.22
2023-10-15T09:53:43.187Z,90.75
2023-10-15T09:56:13.693Z,88.19
2023-10-15T09:58:44.532Z,87.35
2023-10-15T10:01:28.283Z,88.34
2023-10-15T10:04:27.183Z,86.58
2023-10-15T10:07:32.211Z,86.22
2023-10-15T10:10:36.233Z,86.75
2023-10-15T10:13:27.809Z,82.70
2023-10-15T10:16:00.556Z,82.93
2023-10-15T10:18:29.910Z,82.68
2023-10-15T10:21:01.370Z,83.12
2023-10-15T10:23:46.134Z,82.04
2023-10-15T10:26:17.680Z,81.33
2023-10-15T10:28:48.267Z,82.15
2023-10-15T10:31:20.455Z,81.33
2023-10-15T10:33:54.683Z,81.65
2023-10-15T10:36:27.266Z,82.34
2023-10-15T10:39:02.146Z,82.55
2023-10-15T10:41:38.556Z,82.82
2023-10-15T10:44:23.371Z,82.80
2023-10-15T10:46:58.554Z,82.22
2023-10-15T10:49:32.094Z,78.37
2023-10-15T10:52:15.747Z,76.18
2023-10-15T10:54:46.505Z,75.45
2023-10-15T10:57:15.214Z,76.82
2023-10-15T10:59:44.529Z,77.47
2023-10-15T11:02:15.431Z,76.76
2023-10-15T11:04:45.176Z,77.13
2023-10-15T11:07:15.494Z,78.03
2023-10-15T11:09:45.652Z,80.07
2023-10-15T11:12:15.934Z,81.42
2023-10-15T11:14:45.167Z,81.65
2023-10-15T11:17:13.450Z,82.30
2023-10-15T11:19:42.153Z,77.94
2023-10-15T11:22:11.041Z,76.93
2023-10-15T11:24:40.139Z,77.30
2023-10-15T11:27:13.436Z,77.87
2023-10-15T11:29:45.671Z,78.79
2023-10-15T11:32:14.188Z,79.31
2023-10-15T11:34:43.072Z,78.55
2023-10-15T11:37:11.993Z,77.06
2023-10-15T11:39:44.449Z,74.41
2023-10-15T11:42:16.699Z,73.33
2023-10-15T11:44:47.589Z,73.34
2023-10-15T11:47:21.062Z,84.25
2023-10-15T11:49:52.640Z,86.27
2023-10-15T11:52:23.438Z,87.39
2023-10-15T11:54:52.714Z,90.25
2023-10-15T11:57:28.604Z,90.87
2023-10-15T11:59:59.224Z,92.55
2023-10-15T12:02:29.804Z,92.95
2023-10-15T12:05:02.851Z,91.61
2023-10-15T12:07:31.951Z,92.26
2023-10-15T12:10:01.203Z,86.90
2023-10-15T12:12:31.551Z,89.02
2023-10-15T12:15:00.193Z,86.42
2023-10-15T12:17:28.485Z,87.73
2023-10-15T12:20:12.412Z,83.69
2023-10-15T12:22:45.652Z,80.33
2023-10-15T12:25:14.205Z,80.74
2023-10-15T12:27:43.871Z,81.00
2023-10-15T12:30:21.036Z,80.51
2023-10-15T12:32:49.707Z,80.71
2023-10-15T12:35:20.656Z,83.13
2023-10-15T12:37:50.557Z,79.70
2023-10-15T12:40:25.202Z,79.44
2023-10-15T12:42:54.964Z,79.64
2023-10-15T12:45:24.338Z,77.95
2023-10-15T12:47:52.811Z,77.67
2023-10-15T12:50:21.731Z,76.81
2023-10-15T12:52:50.389Z,78.08
2023-10-15T12:55:20.062Z,79.18
2023-10-15T12:57:49.177Z,78.34
2023-10-15T13:00:22.414Z,80.00
2023-10-15T13:02:52.816Z,76.83
2023-10-15T13:05:22.929Z,75.25
2023-10-15T13:07:53.574Z,75.63
2023-10-15T13:10:23.368Z,75.97
2023-10-15T13:12:53.874Z,76.22
2023-10-15T13:15:23.874Z,77.91
2023-10-15T13:17:55.548Z,77.18
2023-10-15T13:20:24.987Z,77.36
2023-10-15T13:22:53.665Z,76.70
2023-10-15T13:25:23.493Z,76.51
2023-10-15T13:27:53.076Z,77.66
2023-10-15T13:30:23.522Z,77.75
2023-10-15T13:32:53.405Z,75.75
2023-10-15T13:35:21.976Z,72.78
2023-10-15T13:37:52.418Z,72.07
2023-10-15T13:40:22.822Z,70.70
2023-10-15T13:42:51.781Z,69.90
2023-10-15T13:45:20.446Z,68.99
2023-10-15T13:47:49.220Z,69.00
2023-10-15T13:50:19.919Z,69.08
2023-10-15T13:52:49.510Z,67.60
2023-10-15T13:55:18.298Z,65.18
2023-10-15T13:57:46.885Z,65.18
2023-10-15T14:00:20.193Z,64.33
2023-10-15T14:02:51.119Z,64.72
2023-10-15T14:05:21.884Z,65.25
2023-10-15T14:07:53.519Z,63.57
2023-10-15T14:10:22.876Z,64.15
2023-10-15T14:12:55.037Z,64.04
2023-10-15T14:15:30.964Z,62.91
2023-10-15T14:17:59.340Z,63.40
2023-10-15T14:20:30.021Z,63.82
2023-10-15T14:22:58.957Z,63.22
2023-10-15T14:25:27.429Z,63.11
2023-10-15T14:27:55.660Z,61.00
2023-10-15T14:30:24.001Z,60.53
2023-10-15T14:32:52.658Z,60.80
2023-10-15T14:35:22.523Z,60.38
2023-10-15T14:37:52.236Z,59.76
2023-10-15T14:40:20.597Z,60.47
2023-10-15T14:42:48.979Z,60.15
2023-10-15T14:45:17.661Z,60.35
2023-10-15T14:47:46.217Z,60.96
2023-10-15T14:50:14.584Z,61.57
2023-10-15T14:52:43.607Z,61.06
2023-10-15T14:55:14.109Z,60.88
2023-10-15T14:57:42.622Z,61.35
2023-10-15T15:00:15.474Z,61.87
2023-10-15T15:02:44.747Z,63.38
2023-10-15T15:05:13.938Z,63.95
2023-10-15T15:07:43.981Z,65.50
2023-10-15T15:10:16.315Z,66.04
2023-10-15T15:12:44.863Z,65.52
2023-10-15T15:15:15.190Z,66.10
2023-10-15T15:17:44.224Z,66.47
2023-10-15T15:20:13.566Z,66.81
2023-10-15T15:22:43.348Z,65.33
2023-10-15T15:25:13.373Z,66.71
2023-10-15T15:27:42.617Z,67.20
2023-10-15T15:30:12.359Z,67.79
2023-10-15T15:32:41.023Z,69.64
2023-10-15T15:35:11.517Z,69.65
2023-10-15T15:37:41.352Z,69.92
2023-10-15T15:40:12.732Z,69.74
2023-10-15T15:42:42.452Z,70.22
2023-10-15T15:45:14.059Z,71.19
2023-10-15T15:47:42.474Z,69.20
2023-10-15T15:50:12.767Z,70.08
2023-10-15T15:52:45.278Z,70.03
2023-10-15T15:55:14.215Z,69.16
2023-10-15T15:57:46.181Z,70.07
2023-10-15T16:00:18.111Z,70.41
2023-10-15T16:02:46.705Z,70.24
2023-10-15T16:05:15.812Z,70.09
2023-10-15T16:07:45.178Z,69.51
2023-10-15T16:10:14.159Z,69.49
2023-10-15T16:12:44.602Z,70.31
2023-10-15T16:15:13.510Z,69.30
2023-10-15T16:17:41.897Z,70.17
2023-10-15T16:20:12.674Z,70.20
2023-10-15T16:22:41.515Z,70.80
2023-10-15T16:25:10.780Z,70.45
2023-10-15T16:27:41.016Z,70.89
2023-10-15T16:30:13.012Z,70.97
2023-10-15T16:32:42.383Z,71.44
2023-10-15T16:35:13.382Z,71.25
2023-10-15T16:37:42.239Z,71.31
2023-10-15T16:40:14.144Z,70.39
2023-10-15T16:42:42.654Z,71.07
2023-10-15T16:45:14.136Z,69.97
2023-10-15T16:47:42.626Z,71.09
2023-10-15T16:50:12.887Z,70.88
2023-10-15T16:52:41.278Z,71.95
2023-10-15T16:55:09.953Z,71.36
2023-10-15T16:57:38.336Z,71.67
2023-10-15T17:00:11.502Z,71.40
2023-10-15T17:02:41.333Z,71.03
2023-10-15T17:05:10.440Z,70.87
2023-10-15T17:07:38.902Z,72.02
2023-10-15T17:10:09.847Z,71.99
2023-10-15T17:12:38.522Z,72.18
2023-10-15T17:15:12.769Z,73.26
2023-10-15T17:17:43.048Z,72.63
2023-10-15T17:20:13.256Z,72.95
2023-10-15T17:22:41.681Z,72.66
2023-10-15T17:25:10.503Z,72.95
2023-10-15T17:27:38.874Z,73.17
2023-10-15T17:32:43.129Z,72.57
2023-10-15T17:35:13.166Z,72.78
2023-10-15T17:37:41.547Z,72.72
2023-10-15T17:40:12.196Z,72.63
2023-10-15T17:42:42.621Z,72.70
2023-10-15T17:45:11.685Z,72.09
2023-10-15T17:47:41.140Z,71.85
2023-10-15T17:50:11.849Z,72.29
2023-10-15T17:52:43.294Z,72.28
2023-10-15T17:55:12.434Z,73.54
2023-10-15T17:57:40.966Z,73.17
2023-10-15T18:00:15.166Z,72.61
2023-10-15T18:02:44.459Z,72.85
2023-10-15T18:05:14.284Z,73.19
2023-10-15T18:07:46.256Z,74.57
2023-10-15T18:10:14.940Z,75.40
2023-10-15T18:12:43.755Z,75.54
2023-10-15T18:15:13.191Z,76.44
2023-10-15T18:17:41.603Z,78.64
2023-10-15T18:20:15.831Z,78.89
2023-10-15T18:22:47.897Z,79.16
2023-10-15T18:25:17.918Z,79.12
2023-10-15T18:27:46.458Z,78.40
2023-10-15T18:30:15.253Z,78.20
2023-10-15T18:32:43.526Z,78.27
2023-10-15T18:35:17.003Z,78.91
2023-10-15T18:37:48.055Z,79.24
2023-10-15T18:40:16.810Z,80.34
2023-10-15T18:42:46.475Z,79.68
2023-10-15T18:45:15.066Z,80.11
2023-10-15T18:47:43.737Z,80.96
2023-10-15T18:50:12.519Z,80.71
2023-10-15T18:52:42.502Z,80.09
2023-10-15T18:55:13.935Z,80.14
2023-10-15T18:57:42.292Z,80.53
2023-10-15T19:00:14.178Z,80.14
2023-10-15T19:02:42.910Z,81.06
2023-10-15T19:05:11.276Z,80.94
2023-10-15T19:07:39.529Z,82.26
2023-10-15T19:10:10.735Z,82.88
2023-10-15T19:12:40.982Z,82.79
2023-10-15T19:15:10.484Z,82.27
2023-10-15T19:17:38.784Z,83.35
2023-10-15T19:20:12.034Z,82.53
2023-10-15T19:22:41.721Z,82.64
2023-10-15T19:25:12.075Z,84.33
2023-10-15T19:27:43.977Z,84.53
2023-10-15T19:30:13.759Z,82.68
2023-10-15T19:32:43.433Z,83.46
2023-10-15T19:35:12.742Z,83.02
2023-10-15T19:37:42.219Z,82.97
2023-10-15T19:40:12.033Z,83.69
2023-10-15T19:42:42.144Z,82.65
2023-10-15T19:45:11.617Z,82.04
2023-10-15T19:47:40.012Z,83.30
2023-10-15T19:50:08.727Z,83.79
2023-10-15T19:52:38.204Z,85.29
2023-10-15T19:55:07.269Z,86.40
2023-10-15T19:57:37.999Z,86.62
2023-10-15T20:00:19.606Z,87.07
2023-10-15T20:02:49.789Z,85.99
2023-10-15T20:05:19.267Z,86.71
2023-10-15T20:07:49.235Z,86.47
2023-10-15T20:10:18.684Z,84.96
2023-10-15T20:12:48.393Z,86.32
2023-10-15T20:15:20.761Z,85.69
2023-10-15T20:17:50.032Z,85.30
2023-10-15T20:20:21.168Z,84.64
2023-10-15T20:22:49.556Z,85.15
2023-10-15T20:25:20.110Z,84.27
2023-10-15T20:27:49.745Z,84.40
2023-10-15T20:30:19.725Z,83.84
2023-10-15T20:32:55.982Z,83.96
2023-10-15T20:35:25.715Z,82.79
2023-10-15T20:37:57.231Z,83.53
2023-10-15T20:40:27.374Z,84.67
2023-10-15T20:42:56.122Z,85.58
2023-10-15T20:45:28.152Z,85.13
2023-10-15T20:47:56.624Z,85.77
2023-10-15T20:50:26.353Z,86.88
2023-10-15T20:52:55.560Z,88.20
2023-10-15T20:55:26.069Z,87.60
2023-10-15T20:57:56.349Z,87.34
2023-10-15T21:00:25.970Z,87.74
2023-10-15T21:02:56.140Z,86.75
2023-10-15T21:05:25.646Z,87.17
2023-10-15T21:07:54.074Z,86.08
2023-10-15T21:10:23.632Z,85.50
2023-10-15T21:12:53.078Z,85.27
2023-10-15T21:15:21.397Z,84.87
2023-10-15T21:17:51.452Z,84.75
2023-10-15T21:20:19.795Z,84.79
2023-10-15T21:22:48.032Z,84.31
2023-10-15T21:25:16.818Z,85.37
2023-10-15T21:27:45.788Z,85.38
2023-10-15T21:30:14.934Z,86.52
2023-10-15T21:32:43.745Z,87.33
2023-10-15T21:35:13.641Z,88.06
2023-10-15T21:37:43.168Z,87.40
2023-10-15T21:40:16.533Z,87.80
2023-10-15T21:42:46.984Z,87.85
2023-10-15T21:45:15.877Z,86.83
2023-10-15T21:47:46.865Z,86.74
2023-10-15T21:50:18.030Z,85.87
2023-10-15T21:52:47.375Z,85.56
2023-10-15T21:55:16.070Z,84.80
2023-10-15T21:57:44.450Z,85.12
2023-10-15T22:00:28.076Z,85.66
2023-10-15T22:02:56.572Z,84.85
2023-10-15T22:05:27.325Z,85.53
2023-10-15T22:07:55.695Z,86.51
2023-10-15T22:10:27.376Z,86.05
2023-10-15T22:12:58.039Z,85.91
2023-10-15T22:15:27.102Z,86.85
2023-10-15T22:17:56.532Z,86.91
2023-10-15T22:20:28.989Z,87.70
2023-10-15T22:22:59.254Z,86.93
2023-10-15T22:25:35.537Z,86.90
2023-10-15T22:28:11.379Z,86.61
2023-10-15T22:30:39.795Z,87.17
2023-10-15T22:33:09.577Z,87.53
2023-10-15T22:35:42.097Z,87.73
2023-10-15T22:38:13.412Z,87.55
2023-10-15T22:40:45.357Z,87.37
2023-10-15T22:43:14.270Z,87.42
2023-10-15T22:45:42.979Z,87.77
2023-10-15T22:48:11.313Z,88.15
2023-10-15T22:50:42.248Z,88.13
2023-10-15T22:53:12.629Z,88.52
2023-10-15T22:55:42.758Z,88.81
2023-10-15T22:58:12.035Z,89.11
2023-10-15T23:00:41.423Z,88.12
2023-10-15T23:05:39.386Z,88.70
2023-10-15T23:08:11.063Z,88.55
2023-10-15T23:10:41.172Z,88.72
2023-10-15T23:13:10.428Z,88.30
2023-10-15T23:15:40.562Z,90.55
2023-10-15T23:18:10.493Z,91.54
2023-10-15T23:20:41.855Z,93.46
2023-10-15T23:23:20.204Z,95.98
2023-10-15T23:25:52.732Z,94.15
2023-10-15T23:28:24.886Z,94.31
2023-10-15T23:30:57.444Z,93.90
2023-10-15T23:33:30.361Z,92.84
2023-10-15T23:36:00.238Z,93.50
2023-10-15T23:38:31.594Z,93.48
2023-10-15T23:40:59.934Z,91.77
2023-10-15T23:43:28.309Z,90.35
2023-10-15T23:46:05.722Z,91.06
2023-10-15T23:48:38.590Z,90.72
2023-10-15T23:51:12.623Z,90.64
2023-10-15T23:53:44.298Z,90.25
2023-10-15T23:56:24.356Z,90.70
2023-10-15T23:58:57.514Z,91.51
